Terminal Aerodrome Forecast
Issued by NWS Sterling, VA

Current Version | Previous Version | Graphics & Text | Print | Product List | Glossary On
Versions: 1 2 3 4 5 6 7 8 9 10 11 12 13 14 15 16 17 18 19
000
FTUS41 KLWX 242335
TAFMRB
TAF
KMRB 242335Z 2500/2524 05006KT 5SM -RA OVC035
     FM250400 05006KT 5SM -RA OVC015
     FM250600 04006KT 3SM -RA OVC008
     FM251300 04008KT 2SM -RA OVC003
     FM251500 04009KT 1 1/2SM -RA OVC003=

USA.gov is the U.S. government's official web portal to all federal, state and local government web resources and services.